createdAt,value
2018-12-10T00:04:07.651Z,8.40
2018-12-10T00:06:36.794Z,7.10
2018-12-10T00:09:06.884Z,7.67
2018-12-10T00:11:36.582Z,8.13
2018-12-10T00:14:06.850Z,8.13
2018-12-10T00:16:36.128Z,6.13
2018-12-10T00:19:05.233Z,7.30
2018-12-10T00:21:34.522Z,6.87
2018-12-10T00:24:03.931Z,6.03
2018-12-10T00:26:33.113Z,5.57
2018-12-10T00:29:03.259Z,7.30
2018-12-10T00:31:32.460Z,5.27
2018-12-10T00:34:01.531Z,9.43
2018-12-10T00:36:30.924Z,4.57
2018-12-10T00:39:00.027Z,11.10
2018-12-10T00:41:34.125Z,9.90
2018-12-10T00:44:04.976Z,9.80
2018-12-10T00:46:35.191Z,10.40
2018-12-10T01:12:06.701Z,6.83
2018-12-10T01:14:36.046Z,6.00
2018-12-10T01:17:05.191Z,5.07
2018-12-10T01:19:34.542Z,9.83
2018-12-10T01:22:03.794Z,12.83
2018-12-10T01:24:34.559Z,7.30
2018-12-10T01:27:03.726Z,10.63
2018-12-10T01:29:33.022Z,8.77
2018-12-10T01:32:02.775Z,8.67
2018-12-10T01:34:32.040Z,5.60
2018-12-10T01:37:01.260Z,8.80
2018-12-10T01:39:30.464Z,6.57
2018-12-10T01:41:59.758Z,9.00
2018-12-10T01:44:28.931Z,16.87
2018-12-10T01:46:58.136Z,11.07
2018-12-10T01:49:27.840Z,8.27
2018-12-10T01:51:57.035Z,10.00
2018-12-10T01:54:26.265Z,7.13
2018-12-10T01:56:55.485Z,9.50
2018-12-10T01:59:24.748Z,9.63
2018-12-10T02:01:54.378Z,6.97
2018-12-10T02:04:23.508Z,8.97
2018-12-10T02:06:52.638Z,6.70
2018-12-10T02:09:21.784Z,6.17
2018-12-10T02:11:50.908Z,9.97
2018-12-10T02:14:21.079Z,5.23
2018-12-10T02:16:50.380Z,6.97
2018-12-10T02:19:19.630Z,7.40
2018-12-10T02:21:48.762Z,6.17
2018-12-10T02:24:18.281Z,13.27
2018-12-10T02:26:47.400Z,11.10
2018-12-10T02:29:17.547Z,7.57
2018-12-10T02:31:46.662Z,10.17
2018-12-10T02:34:15.945Z,9.43
2018-12-10T02:36:45.335Z,8.30
2018-12-10T02:39:14.911Z,6.50
2018-12-10T02:41:44.026Z,11.23
2018-12-10T02:44:13.193Z,11.23
2018-12-10T02:46:42.891Z,10.07
2018-12-10T02:49:11.990Z,6.10
2018-12-10T02:51:41.227Z,7.93
2018-12-10T02:54:10.607Z,9.33
2018-12-10T02:56:39.873Z,11.37
2018-12-10T02:59:09.050Z,8.13
2018-12-10T03:01:38.127Z,4.47
2018-12-10T03:04:07.287Z,6.27
2018-12-10T03:06:37.229Z,7.73
2018-12-10T03:09:08.302Z,11.83
2018-12-10T03:11:37.498Z,13.23
2018-12-10T03:14:07.165Z,12.43
2018-12-10T03:16:36.420Z,8.37
2018-12-10T03:19:05.534Z,7.53
2018-12-10T03:21:34.740Z,9.57
2018-12-10T03:24:03.922Z,10.87
2018-12-10T03:26:33.047Z,8.70
2018-12-10T03:29:02.150Z,9.83
2018-12-10T03:31:31.296Z,8.77
2018-12-10T03:34:00.535Z,10.37
2018-12-10T03:36:29.805Z,16.33
2018-12-10T03:38:59.003Z,12.70
2018-12-10T03:41:28.201Z,12.73
2018-12-10T03:43:57.332Z,7.53
2018-12-10T03:46:26.535Z,4.47
2018-12-10T03:48:55.735Z,8.50
2018-12-10T03:51:24.937Z,6.80
2018-12-10T03:53:54.137Z,7.13
2018-12-10T03:56:23.432Z,7.07
2018-12-10T03:58:52.735Z,9.87
2018-12-10T04:01:22.029Z,11.63
2018-12-10T04:03:51.376Z,9.20
2018-12-10T04:06:20.576Z,13.13
2018-12-10T04:08:49.746Z,8.70
2018-12-10T04:11:18.982Z,6.37
2018-12-10T04:13:48.241Z,7.53
2018-12-10T04:16:17.353Z,7.90
2018-12-10T04:18:46.475Z,9.63
2018-12-10T04:21:15.622Z,9.93
2018-12-10T04:23:44.861Z,8.30
2018-12-10T04:26:13.963Z,10.00
2018-12-10T04:28:43.049Z,10.10
2018-12-10T04:31:12.143Z,6.43
2018-12-10T04:33:41.225Z,6.17
2018-12-10T04:36:10.459Z,5.57
2018-12-10T04:38:39.605Z,7.47
2018-12-10T04:41:08.735Z,6.63
2018-12-10T04:43:37.825Z,8.63
2018-12-10T04:46:07.112Z,6.13
2018-12-10T04:48:36.312Z,6.40
2018-12-10T04:51:05.447Z,7.50
2018-12-10T04:53:34.735Z,13.57
2018-12-10T04:56:04.329Z,11.53
2018-12-10T04:58:33.435Z,11.60
2018-12-10T05:01:02.715Z,9.00
2018-12-10T05:03:32.337Z,5.57
2018-12-10T05:06:01.465Z,4.83
2018-12-10T05:08:30.565Z,6.63
2018-12-10T05:10:59.653Z,10.40
2018-12-10T05:13:28.739Z,7.47
2018-12-10T05:15:57.898Z,8.10
2018-12-10T05:18:27.018Z,8.57
2018-12-10T05:20:56.129Z,9.53
2018-12-10T05:23:26.353Z,10.20
2018-12-10T05:25:55.565Z,3.83
2018-12-10T05:28:24.727Z,12.20
2018-12-10T05:30:53.916Z,9.60
2018-12-10T05:33:23.162Z,11.20
2018-12-10T05:35:52.372Z,5.97
2018-12-10T05:38:21.525Z,9.37
2018-12-10T05:40:50.737Z,7.00
2018-12-10T05:43:19.913Z,5.20
2018-12-10T05:45:49.120Z,5.97
2018-12-10T05:48:18.352Z,3.73
2018-12-10T05:50:47.531Z,9.13
2018-12-10T05:53:16.908Z,9.27
2018-12-10T05:55:46.620Z,9.60
2018-12-10T05:58:17.656Z,6.90
2018-12-10T06:00:44.957Z,10.10
2018-12-10T06:03:14.027Z,11.80
2018-12-10T06:05:43.244Z,12.30
2018-12-10T06:08:12.411Z,6.03
2018-12-10T06:10:41.602Z,5.97
2018-12-10T06:13:10.807Z,2.07
2018-12-10T06:15:39.911Z,7.67
2018-12-10T06:18:09.097Z,5.87
2018-12-10T06:23:46.670Z,7.43
2018-12-10T06:26:17.141Z,4.90
2018-12-10T06:28:47.267Z,6.10
2018-12-10T07:00:06.316Z,15.00
2018-12-10T07:02:35.820Z,6.57
2018-12-10T07:05:05.029Z,4.60
2018-12-10T07:07:34.271Z,5.53
2018-12-10T07:10:04.033Z,4.13
2018-12-10T07:12:33.277Z,5.43
2018-12-10T07:15:02.458Z,16.63
2018-12-10T07:17:31.616Z,6.97
2018-12-10T07:20:00.881Z,10.27
2018-12-10T07:22:30.112Z,8.67
2018-12-10T07:24:59.250Z,6.87
2018-12-10T07:27:28.577Z,9.87
2018-12-10T07:29:57.837Z,6.93
2018-12-10T07:32:27.040Z,5.10
2018-12-10T07:34:56.235Z,7.17
2018-12-10T07:37:25.529Z,10.60
2018-12-10T07:39:54.780Z,9.70
2018-12-10T07:42:23.967Z,6.27
2018-12-10T07:44:53.165Z,6.57
2018-12-10T07:47:22.271Z,9.97
2018-12-10T07:49:51.524Z,9.13
2018-12-10T07:52:20.880Z,24.00
2018-12-10T07:54:50.846Z,7.10
2018-12-10T07:57:20.050Z,8.40
2018-12-10T07:59:49.221Z,6.00
2018-12-10T08:02:18.415Z,5.93
2018-12-10T08:04:47.601Z,5.60
2018-12-10T08:07:16.758Z,5.50
2018-12-10T08:09:46.018Z,8.23
2018-12-10T08:12:15.651Z,5.43
2018-12-10T08:14:45.066Z,5.53
2018-12-10T08:17:14.246Z,10.60
2018-12-10T08:19:44.045Z,10.77
2018-12-10T08:22:13.215Z,10.97
2018-12-10T08:24:42.625Z,5.20
2018-12-10T08:27:11.865Z,9.83
2018-12-10T08:29:41.976Z,5.27
2018-12-10T08:32:11.929Z,7.50
2018-12-10T08:34:48.067Z,5.27
2018-12-10T08:37:17.223Z,9.30
2018-12-10T08:39:46.448Z,7.43
2018-12-10T08:42:15.553Z,13.10
2018-12-10T08:44:44.671Z,9.50
2018-12-10T08:47:16.108Z,6.20
2018-12-10T08:49:43.445Z,5.90
2018-12-10T08:52:12.737Z,12.83
2018-12-10T08:54:42.059Z,6.70
2018-12-10T08:57:11.318Z,9.47
2018-12-10T08:59:40.535Z,10.93
2018-12-10T09:02:09.818Z,5.77
2018-12-10T09:04:39.066Z,15.83
2018-12-10T09:07:08.357Z,7.20
2018-12-10T09:09:38.222Z,6.57
2018-12-10T09:12:07.629Z,8.43
2018-12-10T09:14:37.533Z,9.07
2018-12-10T09:17:06.790Z,11.33
2018-12-10T09:19:36.037Z,7.53
2018-12-10T09:22:05.285Z,7.97
2018-12-10T09:24:34.531Z,15.37
2018-12-10T09:27:03.834Z,6.43
2018-12-10T09:29:33.224Z,12.17
2018-12-10T09:32:02.399Z,14.60
2018-12-10T09:34:32.513Z,11.83
2018-12-10T09:37:01.968Z,13.30
2018-12-10T09:39:31.166Z,6.37
2018-12-10T09:42:00.569Z,10.63
2018-12-10T09:44:31.440Z,10.60
2018-12-10T09:47:00.674Z,15.73
2018-12-10T09:49:30.081Z,15.67
2018-12-10T09:51:59.613Z,12.20
2018-12-10T09:54:29.310Z,15.73
2018-12-10T09:56:58.521Z,7.57
2018-12-10T09:59:29.313Z,14.87
2018-12-10T10:01:58.771Z,10.00
2018-12-10T10:04:28.276Z,11.87
2018-12-10T10:06:58.507Z,6.80
2018-12-10T10:09:28.726Z,9.20
2018-12-10T10:11:58.619Z,7.20
2018-12-10T10:14:28.571Z,12.37
2018-12-10T10:16:57.985Z,7.50
2018-12-10T10:19:27.205Z,10.93
2018-12-10T10:22:01.587Z,8.07
2018-12-10T10:24:31.893Z,14.30
2018-12-10T10:27:01.448Z,11.23
2018-12-10T10:29:31.346Z,6.17
2018-12-10T10:32:00.418Z,8.37
2018-12-10T10:34:29.671Z,13.30
2018-12-10T10:37:07.985Z,10.33
2018-12-10T10:39:53.318Z,9.00
2018-12-10T10:42:23.795Z,8.00
2018-12-10T10:44:52.957Z,7.33
2018-12-10T10:47:24.608Z,5.47
2018-12-10T10:49:53.759Z,10.80
2018-12-10T10:52:23.068Z,13.57
2018-12-10T10:54:53.013Z,8.43
2018-12-10T10:57:22.399Z,7.60
2018-12-10T10:59:51.930Z,8.23
2018-12-10T11:02:26.113Z,7.60
2018-12-10T11:04:55.524Z,9.00
2018-12-10T11:07:24.853Z,11.47
2018-12-10T11:09:55.533Z,14.57
2018-12-10T11:12:25.089Z,9.53
2018-12-10T11:15:01.532Z,6.57
2018-12-10T11:17:31.302Z,8.27
2018-12-10T11:20:00.544Z,12.47
2018-12-10T11:22:29.964Z,6.57
2018-12-10T11:25:00.666Z,15.33
2018-12-10T11:27:31.512Z,9.67
2018-12-10T11:30:04.900Z,6.03
2018-12-10T11:32:35.573Z,14.17
2018-12-10T11:35:05.253Z,16.20
2018-12-10T11:37:34.554Z,9.63
2018-12-10T11:40:05.806Z,6.37
2018-12-10T11:42:35.176Z,6.93
2018-12-10T11:45:04.586Z,4.33
2018-12-10T11:47:35.130Z,6.57
2018-12-10T11:50:04.441Z,5.47
2018-12-10T11:52:34.915Z,8.50
2018-12-10T11:55:05.119Z,14.10
2018-12-10T11:57:34.343Z,9.73
2018-12-10T12:00:12.136Z,9.23
2018-12-10T12:02:41.432Z,12.27
2018-12-10T12:05:15.466Z,9.27
2018-12-10T12:07:46.213Z,9.37
2018-12-10T12:10:17.769Z,13.47
2018-12-10T12:12:48.148Z,15.30
2018-12-10T12:15:17.320Z,18.23
2018-12-10T12:17:46.732Z,11.90
2018-12-10T12:20:16.360Z,11.00
2018-12-10T12:22:45.640Z,5.63
2018-12-10T12:25:15.021Z,8.77
2018-12-10T12:27:44.412Z,22.47
2018-12-10T12:30:14.019Z,9.67
2018-12-10T12:32:44.152Z,15.10
2018-12-10T12:35:13.845Z,6.07
2018-12-10T12:37:43.044Z,14.50
2018-12-10T12:40:12.445Z,13.73
2018-12-10T12:42:41.745Z,9.50
2018-12-10T12:45:11.876Z,9.93
2018-12-10T12:47:41.166Z,7.53
2018-12-10T12:50:10.706Z,9.97
2018-12-10T12:52:39.927Z,7.17
2018-12-10T12:55:10.196Z,8.47
2018-12-10T12:57:39.441Z,9.67
2018-12-10T13:00:09.024Z,5.60
2018-12-10T13:02:39.181Z,6.60
2018-12-10T13:05:08.675Z,11.83
2018-12-10T13:07:37.932Z,8.83
2018-12-10T13:10:08.864Z,7.50
2018-12-10T13:12:38.207Z,11.57
2018-12-10T13:15:08.889Z,5.87
2018-12-10T13:17:38.173Z,9.00
2018-12-10T13:20:08.003Z,12.13
2018-12-10T13:22:37.301Z,8.50
2018-12-10T13:25:07.111Z,8.03
2018-12-10T13:27:37.233Z,16.40
2018-12-10T13:30:07.211Z,6.00
2018-12-10T13:32:36.979Z,16.03
2018-12-10T13:35:06.504Z,11.47
2018-12-10T13:37:45.873Z,10.67
2018-12-10T13:40:11.744Z,11.63
2018-12-10T13:42:43.281Z,17.83
2018-12-10T13:45:13.426Z,7.37
2018-12-10T13:47:42.560Z,9.20
2018-12-10T13:50:11.838Z,11.37
2018-12-10T13:52:41.467Z,16.30
2018-12-10T13:55:10.725Z,15.70
2018-12-10T13:57:40.070Z,10.43
2018-12-10T14:00:11.329Z,15.90
2018-12-10T14:02:42.397Z,10.37
2018-12-10T14:05:14.609Z,18.20
2018-12-10T14:07:48.056Z,13.70
2018-12-10T14:10:14.499Z,12.10
2018-12-10T14:12:48.036Z,8.53
2018-12-10T14:15:17.327Z,11.90
2018-12-10T14:17:47.982Z,18.27
2018-12-10T14:20:18.070Z,13.47
2018-12-10T14:22:47.287Z,12.27
2018-12-10T14:25:31.342Z,13.73
2018-12-10T14:28:00.899Z,19.37
2018-12-10T14:30:30.032Z,12.07
2018-12-10T14:32:59.692Z,18.07
2018-12-10T14:35:29.097Z,13.53
2018-12-10T14:37:58.368Z,15.03
2018-12-10T14:40:27.784Z,15.40
2018-12-10T14:42:58.684Z,15.80
2018-12-10T14:45:27.884Z,18.97
2018-12-10T14:47:58.720Z,27.50
2018-12-10T14:50:27.921Z,19.90
2018-12-10T14:52:57.178Z,14.17
2018-12-10T14:55:26.242Z,20.63
2018-12-10T14:57:56.334Z,23.47
2018-12-10T15:00:25.534Z,13.47
2018-12-10T15:02:57.657Z,13.40
2018-12-10T15:05:26.554Z,18.73
2018-12-10T15:07:56.003Z,13.40
2018-12-10T15:10:25.238Z,19.73
2018-12-10T15:12:56.261Z,18.60
2018-12-10T15:15:25.681Z,16.67
2018-12-10T15:17:56.592Z,21.67
2018-12-10T15:20:27.295Z,10.40
2018-12-10T15:22:56.679Z,11.17
2018-12-10T15:25:26.761Z,20.40
2018-12-10T15:27:55.980Z,19.37
2018-12-10T15:30:26.105Z,16.90
2018-12-10T15:32:55.969Z,15.90
2018-12-10T15:35:27.857Z,18.10
2018-12-10T15:37:57.495Z,19.77
2018-12-10T15:40:27.202Z,18.87
2018-12-10T15:42:56.340Z,17.37
2018-12-10T15:45:25.482Z,17.97
2018-12-10T15:47:54.663Z,11.77
2018-12-10T15:50:24.454Z,22.57
2018-12-10T15:52:53.588Z,20.30
2018-12-10T15:55:22.961Z,19.47
2018-12-10T15:57:53.743Z,18.83
2018-12-10T16:00:23.008Z,28.47
2018-12-10T16:02:52.279Z,26.87
2018-12-10T16:05:22.045Z,31.47
2018-12-10T16:07:51.753Z,18.90
2018-12-10T16:10:21.782Z,20.50
2018-12-10T16:12:51.010Z,30.80
2018-12-10T16:15:20.247Z,25.53
2018-12-10T16:17:49.723Z,18.37
2018-12-10T16:20:19.220Z,22.90
2018-12-10T16:22:55.423Z,19.37
2018-12-10T16:25:24.944Z,18.73
2018-12-10T16:27:55.310Z,22.90
2018-12-10T16:30:24.891Z,27.83
2018-12-10T16:32:54.871Z,18.63
2018-12-10T16:35:24.289Z,27.37
2018-12-10T16:37:54.476Z,28.73
2018-12-10T16:40:23.818Z,25.70
2018-12-10T16:42:53.717Z,27.70
2018-12-10T16:45:22.953Z,30.37
2018-12-10T16:47:52.372Z,42.50
2018-12-10T16:50:21.748Z,35.27
2018-12-10T16:52:52.473Z,40.43
2018-12-10T16:55:21.758Z,37.77
2018-12-10T16:57:51.461Z,64.00
2018-12-10T17:00:20.681Z,54.10
2018-12-10T17:02:49.897Z,36.27
2018-12-10T17:05:19.178Z,34.50
2018-12-10T17:07:50.025Z,22.07
2018-12-10T17:10:26.283Z,24.47
2018-12-10T17:12:55.489Z,20.03
2018-12-10T17:15:32.109Z,23.53
2018-12-10T17:32:45.546Z,23.77
2018-12-10T17:35:14.614Z,29.00
2018-12-10T17:37:43.979Z,32.00
2018-12-10T17:40:13.373Z,22.20
2018-12-10T17:42:42.514Z,27.03
2018-12-10T17:45:11.788Z,23.03
2018-12-10T17:47:41.078Z,18.57
2018-12-10T17:50:13.060Z,14.57
2018-12-10T17:52:42.365Z,18.00
2018-12-10T17:55:11.777Z,21.87
2018-12-10T17:57:41.054Z,19.80
2018-12-10T18:00:12.007Z,17.27
2018-12-10T18:02:41.226Z,19.77
2018-12-10T18:05:10.485Z,21.47
2018-12-10T18:07:39.680Z,17.27
2018-12-10T18:10:09.097Z,21.63
2018-12-10T18:12:38.348Z,24.15
2018-12-10T18:15:08.322Z,24.60
2018-12-10T18:17:37.702Z,20.80
2018-12-10T18:20:09.464Z,21.17
2018-12-10T18:22:39.175Z,22.57
2018-12-10T18:25:08.483Z,17.63
2018-12-10T18:27:38.439Z,19.50
2018-12-10T18:30:10.257Z,21.17
2018-12-10T18:32:39.598Z,13.50
2018-12-10T18:35:10.604Z,13.47
2018-12-10T18:37:40.000Z,19.53
2018-12-10T18:40:12.470Z,19.17
2018-12-10T18:42:41.888Z,17.77
2018-12-10T18:45:15.569Z,15.83
2018-12-10T18:47:44.847Z,25.17
2018-12-10T18:50:14.267Z,19.77
2018-12-10T18:52:43.642Z,18.03
2018-12-10T18:55:12.836Z,27.07
2018-12-10T18:57:48.417Z,28.47
2018-12-10T19:00:17.619Z,31.90
2018-12-10T19:02:46.843Z,18.03
2018-12-10T19:05:17.086Z,22.00
2018-12-10T19:07:46.612Z,16.53
2018-12-10T19:10:16.789Z,21.57
2018-12-10T19:12:45.995Z,26.30
2018-12-10T19:15:15.753Z,27.37
2018-12-10T19:17:45.780Z,21.97
2018-12-10T19:20:16.026Z,16.33
2018-12-10T19:22:45.988Z,12.30
2018-12-10T19:25:15.226Z,23.70
2018-12-10T19:27:44.469Z,18.03
2018-12-10T19:30:13.636Z,12.97
2018-12-10T19:32:42.863Z,14.73
2018-12-10T19:35:12.113Z,20.53
2018-12-10T19:37:42.566Z,21.03
2018-12-10T19:40:11.705Z,31.10
2018-12-10T19:42:40.874Z,43.93
2018-12-10T19:45:10.981Z,33.50
2018-12-10T19:47:40.138Z,27.67
2018-12-10T19:50:09.512Z,22.53
2018-12-10T19:52:38.599Z,79.43
2018-12-10T19:55:08.739Z,46.13
2018-12-10T19:57:38.101Z,28.17
2018-12-10T20:00:08.759Z,32.70
2018-12-10T20:02:37.968Z,20.40
2018-12-10T20:05:08.556Z,15.13
2018-12-10T20:07:37.828Z,19.17
2018-12-10T20:10:08.932Z,26.27
2018-12-10T20:12:38.135Z,38.53
2018-12-10T20:15:08.412Z,19.17
2018-12-10T20:17:37.698Z,14.97
2018-12-10T20:20:08.338Z,17.77
2018-12-10T20:22:37.641Z,20.93
2018-12-10T20:25:08.685Z,18.03
2018-12-10T20:27:37.940Z,19.60
2018-12-10T20:30:07.394Z,13.67
2018-12-10T20:32:54.357Z,21.17
2018-12-10T20:35:23.779Z,13.30
2018-12-10T20:37:58.206Z,10.53
2018-12-10T20:40:27.314Z,18.87
2018-12-10T20:45:32.010Z,35.47
2018-12-10T20:48:01.256Z,24.07
2018-12-10T20:50:30.465Z,18.47
2018-12-10T20:52:59.563Z,17.03
2018-12-10T20:55:28.733Z,15.47
2018-12-10T20:57:57.866Z,14.00
2018-12-10T21:00:27.041Z,13.23
2018-12-10T21:02:56.128Z,16.67
2018-12-10T21:05:26.358Z,16.67
2018-12-10T21:07:55.587Z,7.10
2018-12-10T21:10:26.746Z,15.20
2018-12-10T21:12:55.877Z,16.57
2018-12-10T21:15:26.149Z,36.93
2018-12-10T21:17:55.560Z,40.83
2018-12-10T21:20:24.795Z,37.83
2018-12-10T21:22:53.955Z,23.40
2018-12-10T21:25:23.808Z,24.17
2018-12-10T21:27:52.904Z,19.10
2018-12-10T21:30:22.024Z,13.47
2018-12-10T21:32:51.293Z,17.83
2018-12-10T21:35:21.112Z,11.63
2018-12-10T21:37:50.499Z,17.30
2018-12-10T21:40:19.636Z,13.77
2018-12-10T21:42:49.000Z,16.90
2018-12-10T21:45:19.791Z,11.07
2018-12-10T21:47:49.104Z,24.23
2018-12-10T21:50:18.909Z,12.33
2018-12-10T21:52:47.991Z,12.43
2018-12-10T21:55:17.811Z,10.97
2018-12-10T21:57:47.617Z,13.80
2018-12-10T22:00:17.049Z,13.23
2018-12-10T22:02:46.225Z,17.40
2018-12-10T22:05:15.969Z,14.83
2018-12-10T22:07:45.121Z,14.33
2018-12-10T22:10:15.164Z,17.13
2018-12-10T22:12:45.764Z,8.20
2018-12-10T22:15:14.959Z,15.23
2018-12-10T22:17:44.304Z,14.97
2018-12-10T22:20:13.460Z,15.70
2018-12-10T22:22:42.775Z,15.30
2018-12-10T22:25:11.964Z,12.93
2018-12-10T22:27:41.878Z,12.93
2018-12-10T22:30:12.547Z,15.03
2018-12-10T22:32:42.150Z,12.47
2018-12-10T22:35:11.202Z,23.70
2018-12-10T22:37:40.312Z,11.60
2018-12-10T22:40:09.665Z,13.07
2018-12-10T22:42:38.806Z,15.20
2018-12-10T22:45:10.169Z,13.00
2018-12-10T22:47:39.552Z,10.17
2018-12-10T22:50:09.616Z,18.37
2018-12-10T22:52:38.814Z,17.80
2018-12-10T23:12:05.043Z,15.83
2018-12-10T23:14:34.875Z,24.57
2018-12-10T23:17:04.233Z,12.20
2018-12-10T23:19:33.444Z,14.10
2018-12-10T23:22:03.348Z,15.83
2018-12-10T23:24:32.650Z,13.17
2018-12-10T23:27:01.742Z,12.27
2018-12-10T23:29:30.927Z,16.03
2018-12-10T23:32:04.954Z,14.53
2018-12-10T23:34:34.016Z,10.60
2018-12-10T23:37:03.421Z,9.93
2018-12-10T23:39:33.347Z,19.23
2018-12-10T23:42:02.453Z,11.90
2018-12-10T23:44:36.587Z,9.50
2018-12-10T23:47:05.778Z,12.20
2018-12-10T23:49:34.958Z,18.10
2018-12-10T23:52:04.074Z,13.23
2018-12-10T23:54:33.174Z,7.87
2018-12-10T23:57:02.355Z,9.43
2018-12-10T23:59:31.477Z,18.00
